sensor_id;sensor_type;location;lat;lon;timestamp;P1;durP1;ratioP1;P2;durP2;ratioP2
45548;SDS011;31270;48.328;10.096;2023-11-19T00:00:26;6.53;;;4.90;;
45548;SDS011;31270;48.328;10.096;2023-11-19T00:02:52;6.13;;;4.77;;
45548;SDS011;31270;48.328;10.096;2023-11-19T00:05:18;7.73;;;4.80;;
45548;SDS011;31270;48.328;10.096;2023-11-19T00:07:43;6.00;;;4.43;;
45548;SDS011;31270;48.328;10.096;2023-11-19T00:10:09;8.77;;;4.93;;
45548;SDS011;31270;48.328;10.096;2023-11-19T00:12:42;6.90;;;5.43;;
45548;SDS011;31270;48.328;10.096;2023-11-19T00:15:09;6.50;;;4.73;;
45548;SDS011;31270;48.328;10.096;2023-11-19T00:17:39;6.27;;;4.80;;
45548;SDS011;31270;48.328;10.096;2023-11-19T00:20:09;5.60;;;4.67;;
45548;SDS011;31270;48.328;10.096;2023-11-19T00:22:39;6.73;;;4.80;;
45548;SDS011;31270;48.328;10.096;2023-11-19T00:25:06;7.97;;;5.07;;
45548;SDS011;31270;48.328;10.096;2023-11-19T00:27:32;7.03;;;5.27;;
45548;SDS011;31270;48.328;10.096;2023-11-19T00:29:58;6.90;;;4.83;;
45548;SDS011;31270;48.328;10.096;2023-11-19T00:32:23;7.07;;;5.20;;
45548;SDS011;31270;48.328;10.096;2023-11-19T00:34:49;5.47;;;4.60;;
45548;SDS011;31270;48.328;10.096;2023-11-19T00:37:15;6.40;;;4.77;;
45548;SDS011;31270;48.328;10.096;2023-11-19T00:39:41;5.33;;;4.63;;
45548;SDS011;31270;48.328;10.096;2023-11-19T00:42:07;5.77;;;4.73;;
45548;SDS011;31270;48.328;10.096;2023-11-19T00:44:33;8.60;;;4.73;;
45548;SDS011;31270;48.328;10.096;2023-11-19T00:46:58;6.10;;;5.13;;
45548;SDS011;31270;48.328;10.096;2023-11-19T00:49:25;7.13;;;5.47;;
45548;SDS011;31270;48.328;10.096;2023-11-19T00:51:50;6.07;;;5.07;;
45548;SDS011;31270;48.328;10.096;2023-11-19T00:54:16;8.37;;;5.57;;
45548;SDS011;31270;48.328;10.096;2023-11-19T00:56:41;9.93;;;5.50;;
45548;SDS011;31270;48.328;10.096;2023-11-19T00:59:07;7.47;;;5.40;;
45548;SDS011;31270;48.328;10.096;2023-11-19T01:01:33;6.93;;;6.00;;
45548;SDS011;31270;48.328;10.096;2023-11-19T01:03:58;8.13;;;5.33;;
45548;SDS011;31270;48.328;10.096;2023-11-19T01:06:27;6.63;;;5.30;;
45548;SDS011;31270;48.328;10.096;2023-11-19T01:08:53;7.43;;;5.53;;
45548;SDS011;31270;48.328;10.096;2023-11-19T01:11:20;7.10;;;6.30;;
45548;SDS011;31270;48.328;10.096;2023-11-19T01:13:46;6.63;;;5.50;;
45548;SDS011;31270;48.328;10.096;2023-11-19T01:16:12;6.90;;;5.50;;
45548;SDS011;31270;48.328;10.096;2023-11-19T01:18:38;7.33;;;5.43;;
45548;SDS011;31270;48.328;10.096;2023-11-19T01:21:04;6.60;;;5.60;;
45548;SDS011;31270;48.328;10.096;2023-11-19T01:23:30;7.73;;;5.57;;
45548;SDS011;31270;48.328;10.096;2023-11-19T01:25:57;6.90;;;5.67;;
45548;SDS011;31270;48.328;10.096;2023-11-19T01:28:23;8.10;;;5.80;;
45548;SDS011;31270;48.328;10.096;2023-11-19T01:30:52;7.30;;;5.63;;
45548;SDS011;31270;48.328;10.096;2023-11-19T01:33:17;6.07;;;5.17;;
45548;SDS011;31270;48.328;10.096;2023-11-19T01:35:43;6.63;;;5.23;;
45548;SDS011;31270;48.328;10.096;2023-11-19T01:38:09;8.00;;;5.80;;
45548;SDS011;31270;48.328;10.096;2023-11-19T01:40:35;7.63;;;5.83;;
45548;SDS011;31270;48.328;10.096;2023-11-19T01:43:01;8.83;;;5.70;;
45548;SDS011;31270;48.328;10.096;2023-11-19T01:45:28;7.97;;;5.90;;
45548;SDS011;31270;48.328;10.096;2023-11-19T01:47:55;7.57;;;6.07;;
45548;SDS011;31270;48.328;10.096;2023-11-19T01:50:25;7.93;;;6.17;;
45548;SDS011;31270;48.328;10.096;2023-11-19T01:52:54;7.53;;;5.90;;
45548;SDS011;31270;48.328;10.096;2023-11-19T01:55:22;7.50;;;5.93;;
45548;SDS011;31270;48.328;10.096;2023-11-19T01:57:50;7.87;;;6.30;;
45548;SDS011;31270;48.328;10.096;2023-11-19T02:00:18;8.20;;;6.07;;
45548;SDS011;31270;48.328;10.096;2023-11-19T02:02:45;8.00;;;6.27;;
45548;SDS011;31270;48.328;10.096;2023-11-19T02:05:13;7.60;;;5.73;;
45548;SDS011;31270;48.328;10.096;2023-11-19T02:07:39;9.50;;;5.80;;
45548;SDS011;31270;48.328;10.096;2023-11-19T02:10:05;8.13;;;6.13;;
45548;SDS011;31270;48.328;10.096;2023-11-19T02:12:37;7.97;;;5.87;;
45548;SDS011;31270;48.328;10.096;2023-11-19T02:15:08;7.37;;;5.70;;
45548;SDS011;31270;48.328;10.096;2023-11-19T02:17:34;7.90;;;5.73;;
45548;SDS011;31270;48.328;10.096;2023-11-19T02:20:02;8.67;;;6.20;;
45548;SDS011;31270;48.328;10.096;2023-11-19T02:22:31;9.10;;;6.07;;
45548;SDS011;31270;48.328;10.096;2023-11-19T02:24:59;8.90;;;6.80;;
45548;SDS011;31270;48.328;10.096;2023-11-19T02:27:41;7.47;;;6.20;;
45548;SDS011;31270;48.328;10.096;2023-11-19T02:30:11;8.87;;;6.73;;
45548;SDS011;31270;48.328;10.096;2023-11-19T02:32:40;7.93;;;5.70;;
45548;SDS011;31270;48.328;10.096;2023-11-19T02:35:07;8.20;;;6.07;;
45548;SDS011;31270;48.328;10.096;2023-11-19T02:37:36;8.07;;;6.07;;
45548;SDS011;31270;48.328;10.096;2023-11-19T02:40:04;7.73;;;6.10;;
45548;SDS011;31270;48.328;10.096;2023-11-19T02:42:30;6.70;;;5.60;;
45548;SDS011;31270;48.328;10.096;2023-11-19T02:44:56;8.77;;;5.97;;
45548;SDS011;31270;48.328;10.096;2023-11-19T02:47:22;6.93;;;5.50;;
45548;SDS011;31270;48.328;10.096;2023-11-19T02:49:49;7.10;;;5.73;;
45548;SDS011;31270;48.328;10.096;2023-11-19T02:52:15;7.30;;;5.23;;
45548;SDS011;31270;48.328;10.096;2023-11-19T02:54:41;8.17;;;5.27;;
45548;SDS011;31270;48.328;10.096;2023-11-19T02:57:08;7.43;;;5.50;;
45548;SDS011;31270;48.328;10.096;2023-11-19T02:59:38;7.13;;;5.40;;
45548;SDS011;31270;48.328;10.096;2023-11-19T03:02:08;6.87;;;5.47;;
45548;SDS011;31270;48.328;10.096;2023-11-19T03:04:37;7.27;;;5.30;;
45548;SDS011;31270;48.328;10.096;2023-11-19T03:07:07;7.73;;;6.47;;
45548;SDS011;31270;48.328;10.096;2023-11-19T03:09:33;7.70;;;5.93;;
45548;SDS011;31270;48.328;10.096;2023-11-19T03:12:00;7.07;;;5.47;;
45548;SDS011;31270;48.328;10.096;2023-11-19T03:14:26;7.37;;;5.37;;
45548;SDS011;31270;48.328;10.096;2023-11-19T03:16:51;9.10;;;5.93;;
45548;SDS011;31270;48.328;10.096;2023-11-19T03:19:17;8.73;;;5.97;;
45548;SDS011;31270;48.328;10.096;2023-11-19T03:21:43;7.70;;;5.13;;
45548;SDS011;31270;48.328;10.096;2023-11-19T03:24:09;6.23;;;5.03;;
45548;SDS011;31270;48.328;10.096;2023-11-19T03:26:37;6.67;;;4.93;;
45548;SDS011;31270;48.328;10.096;2023-11-19T03:29:03;7.87;;;5.33;;
45548;SDS011;31270;48.328;10.096;2023-11-19T03:31:29;7.20;;;5.13;;
45548;SDS011;31270;48.328;10.096;2023-11-19T03:33:54;6.03;;;5.13;;
45548;SDS011;31270;48.328;10.096;2023-11-19T03:36:20;8.50;;;6.43;;
45548;SDS011;31270;48.328;10.096;2023-11-19T03:38:46;5.80;;;4.60;;
45548;SDS011;31270;48.328;10.096;2023-11-19T03:41:12;7.37;;;5.20;;
45548;SDS011;31270;48.328;10.096;2023-11-19T03:43:38;9.17;;;5.43;;
45548;SDS011;31270;48.328;10.096;2023-11-19T03:46:04;6.50;;;5.03;;
45548;SDS011;31270;48.328;10.096;2023-11-19T03:48:40;7.83;;;5.37;;
45548;SDS011;31270;48.328;10.096;2023-11-19T03:51:05;7.23;;;4.77;;
45548;SDS011;31270;48.328;10.096;2023-11-19T03:53:31;6.17;;;5.20;;
45548;SDS011;31270;48.328;10.096;2023-11-19T03:55:56;7.00;;;5.47;;
45548;SDS011;31270;48.328;10.096;2023-11-19T03:58:22;7.20;;;5.07;;
45548;SDS011;31270;48.328;10.096;2023-11-19T04:00:47;6.93;;;5.27;;
45548;SDS011;31270;48.328;10.096;2023-11-19T04:03:13;10.27;;;5.17;;
45548;SDS011;31270;48.328;10.096;2023-11-19T04:05:39;7.17;;;5.53;;
45548;SDS011;31270;48.328;10.096;2023-11-19T04:08:04;7.40;;;5.27;;
45548;SDS011;31270;48.328;10.096;2023-11-19T04:10:30;7.27;;;5.07;;
45548;SDS011;31270;48.328;10.096;2023-11-19T04:12:56;9.97;;;5.10;;
45548;SDS011;31270;48.328;10.096;2023-11-19T04:15:21;6.93;;;5.50;;
45548;SDS011;31270;48.328;10.096;2023-11-19T04:17:47;6.70;;;5.27;;
45548;SDS011;31270;48.328;10.096;2023-11-19T04:20:13;7.37;;;5.73;;
45548;SDS011;31270;48.328;10.096;2023-11-19T04:22:39;8.17;;;5.70;;
45548;SDS011;31270;48.328;10.096;2023-11-19T04:25:06;8.97;;;5.97;;
45548;SDS011;31270;48.328;10.096;2023-11-19T04:27:31;9.03;;;5.40;;
45548;SDS011;31270;48.328;10.096;2023-11-19T04:29:57;6.40;;;5.10;;
45548;SDS011;31270;48.328;10.096;2023-11-19T04:32:23;6.57;;;5.27;;
45548;SDS011;31270;48.328;10.096;2023-11-19T04:34:50;7.03;;;5.17;;
45548;SDS011;31270;48.328;10.096;2023-11-19T04:37:16;9.60;;;5.60;;
45548;SDS011;31270;48.328;10.096;2023-11-19T04:39:43;7.40;;;5.50;;
45548;SDS011;31270;48.328;10.096;2023-11-19T04:42:10;7.53;;;5.43;;
45548;SDS011;31270;48.328;10.096;2023-11-19T04:44:35;7.07;;;5.13;;
45548;SDS011;31270;48.328;10.096;2023-11-19T04:47:01;6.77;;;5.23;;
45548;SDS011;31270;48.328;10.096;2023-11-19T04:49:27;6.43;;;5.47;;
45548;SDS011;31270;48.328;10.096;2023-11-19T04:51:52;7.43;;;5.00;;
45548;SDS011;31270;48.328;10.096;2023-11-19T04:54:18;9.03;;;5.73;;
45548;SDS011;31270;48.328;10.096;2023-11-19T04:56:47;8.33;;;5.57;;
45548;SDS011;31270;48.328;10.096;2023-11-19T04:59:13;8.23;;;5.40;;
45548;SDS011;31270;48.328;10.096;2023-11-19T05:01:39;8.67;;;5.80;;
45548;SDS011;31270;48.328;10.096;2023-11-19T05:04:05;6.27;;;5.30;;
45548;SDS011;31270;48.328;10.096;2023-11-19T05:06:32;7.70;;;5.20;;
45548;SDS011;31270;48.328;10.096;2023-11-19T05:08:58;8.27;;;6.17;;
45548;SDS011;31270;48.328;10.096;2023-11-19T05:11:33;7.53;;;5.60;;
45548;SDS011;31270;48.328;10.096;2023-11-19T05:13:59;9.80;;;5.73;;
45548;SDS011;31270;48.328;10.096;2023-11-19T05:16:25;7.70;;;5.93;;
45548;SDS011;31270;48.328;10.096;2023-11-19T05:18:51;8.00;;;6.27;;
45548;SDS011;31270;48.328;10.096;2023-11-19T05:21:17;7.27;;;5.77;;
45548;SDS011;31270;48.328;10.096;2023-11-19T05:23:42;8.27;;;6.13;;
45548;SDS011;31270;48.328;10.096;2023-11-19T05:26:08;9.97;;;6.33;;
45548;SDS011;31270;48.328;10.096;2023-11-19T05:28:37;9.70;;;6.60;;
45548;SDS011;31270;48.328;10.096;2023-11-19T05:31:04;8.70;;;6.47;;
45548;SDS011;31270;48.328;10.096;2023-11-19T05:33:31;7.17;;;5.73;;
45548;SDS011;31270;48.328;10.096;2023-11-19T05:35:56;13.40;;;6.30;;
45548;SDS011;31270;48.328;10.096;2023-11-19T05:38:22;7.17;;;5.50;;
45548;SDS011;31270;48.328;10.096;2023-11-19T05:40:48;7.60;;;6.23;;
45548;SDS011;31270;48.328;10.096;2023-11-19T05:43:14;8.13;;;6.00;;
45548;SDS011;31270;48.328;10.096;2023-11-19T05:45:41;7.37;;;5.70;;
45548;SDS011;31270;48.328;10.096;2023-11-19T05:48:07;8.90;;;6.03;;
45548;SDS011;31270;48.328;10.096;2023-11-19T05:50:34;7.03;;;6.07;;
45548;SDS011;31270;48.328;10.096;2023-11-19T05:53:00;8.67;;;5.93;;
45548;SDS011;31270;48.328;10.096;2023-11-19T05:55:26;7.30;;;5.60;;
45548;SDS011;31270;48.328;10.096;2023-11-19T05:57:53;8.40;;;5.80;;
45548;SDS011;31270;48.328;10.096;2023-11-19T06:00:19;7.43;;;5.93;;
45548;SDS011;31270;48.328;10.096;2023-11-19T06:02:44;8.07;;;6.07;;
45548;SDS011;31270;48.328;10.096;2023-11-19T06:05:10;9.30;;;6.93;;
45548;SDS011;31270;48.328;10.096;2023-11-19T06:07:36;9.33;;;7.27;;
45548;SDS011;31270;48.328;10.096;2023-11-19T06:10:04;10.50;;;6.50;;
45548;SDS011;31270;48.328;10.096;2023-11-19T06:12:31;8.97;;;6.47;;
45548;SDS011;31270;48.328;10.096;2023-11-19T06:14:59;8.93;;;6.03;;
45548;SDS011;31270;48.328;10.096;2023-11-19T06:17:25;9.57;;;6.27;;
45548;SDS011;31270;48.328;10.096;2023-11-19T06:19:51;7.20;;;5.73;;
45548;SDS011;31270;48.328;10.096;2023-11-19T06:22:17;8.30;;;6.20;;
45548;SDS011;31270;48.328;10.096;2023-11-19T06:24:43;8.30;;;5.73;;
45548;SDS011;31270;48.328;10.096;2023-11-19T06:27:08;6.90;;;5.47;;
45548;SDS011;31270;48.328;10.096;2023-11-19T06:29:34;7.70;;;5.97;;
45548;SDS011;31270;48.328;10.096;2023-11-19T06:32:00;8.90;;;6.43;;
45548;SDS011;31270;48.328;10.096;2023-11-19T06:34:25;7.37;;;5.53;;
45548;SDS011;31270;48.328;10.096;2023-11-19T06:36:51;7.20;;;5.50;;
45548;SDS011;31270;48.328;10.096;2023-11-19T06:39:18;7.33;;;5.90;;
45548;SDS011;31270;48.328;10.096;2023-11-19T06:41:44;7.10;;;5.10;;
45548;SDS011;31270;48.328;10.096;2023-11-19T06:44:11;8.37;;;5.10;;
45548;SDS011;31270;48.328;10.096;2023-11-19T06:46:37;6.30;;;4.77;;
45548;SDS011;31270;48.328;10.096;2023-11-19T06:49:03;6.67;;;5.37;;
45548;SDS011;31270;48.328;10.096;2023-11-19T06:51:28;6.27;;;5.00;;
45548;SDS011;31270;48.328;10.096;2023-11-19T06:53:54;7.17;;;5.57;;
45548;SDS011;31270;48.328;10.096;2023-11-19T06:56:21;6.87;;;5.77;;
45548;SDS011;31270;48.328;10.096;2023-11-19T06:58:47;6.77;;;5.17;;
45548;SDS011;31270;48.328;10.096;2023-11-19T07:01:14;6.23;;;4.57;;
45548;SDS011;31270;48.328;10.096;2023-11-19T07:03:44;6.57;;;4.93;;
45548;SDS011;31270;48.328;10.096;2023-11-19T07:06:11;8.60;;;4.60;;
45548;SDS011;31270;48.328;10.096;2023-11-19T07:08:38;6.73;;;4.80;;
45548;SDS011;31270;48.328;10.096;2023-11-19T07:11:04;6.07;;;4.47;;
45548;SDS011;31270;48.328;10.096;2023-11-19T07:13:29;5.93;;;4.77;;
45548;SDS011;31270;48.328;10.096;2023-11-19T07:15:55;6.27;;;4.90;;
45548;SDS011;31270;48.328;10.096;2023-11-19T07:18:21;6.17;;;4.73;;
45548;SDS011;31270;48.328;10.096;2023-11-19T07:20:47;6.13;;;4.27;;
45548;SDS011;31270;48.328;10.096;2023-11-19T07:23:13;5.90;;;4.37;;
45548;SDS011;31270;48.328;10.096;2023-11-19T07:25:42;6.57;;;5.33;;
45548;SDS011;31270;48.328;10.096;2023-11-19T07:28:12;5.80;;;4.80;;
45548;SDS011;31270;48.328;10.096;2023-11-19T07:30:38;6.67;;;4.80;;
45548;SDS011;31270;48.328;10.096;2023-11-19T07:33:04;4.93;;;4.43;;
45548;SDS011;31270;48.328;10.096;2023-11-19T07:35:29;6.40;;;5.03;;
45548;SDS011;31270;48.328;10.096;2023-11-19T07:37:56;6.33;;;5.20;;
45548;SDS011;31270;48.328;10.096;2023-11-19T07:40:22;6.63;;;5.00;;
45548;SDS011;31270;48.328;10.096;2023-11-19T07:42:49;5.43;;;4.40;;
45548;SDS011;31270;48.328;10.096;2023-11-19T07:45:14;5.23;;;4.50;;
45548;SDS011;31270;48.328;10.096;2023-11-19T07:47:40;5.73;;;4.23;;
45548;SDS011;31270;48.328;10.096;2023-11-19T07:50:06;7.13;;;4.33;;
45548;SDS011;31270;48.328;10.096;2023-11-19T07:52:32;7.73;;;4.23;;
45548;SDS011;31270;48.328;10.096;2023-11-19T07:54:58;5.53;;;4.63;;
45548;SDS011;31270;48.328;10.096;2023-11-19T07:57:26;4.63;;;4.03;;
45548;SDS011;31270;48.328;10.096;2023-11-19T07:59:55;5.20;;;4.57;;
45548;SDS011;31270;48.328;10.096;2023-11-19T08:02:22;4.10;;;3.70;;
45548;SDS011;31270;48.328;10.096;2023-11-19T08:04:49;5.27;;;3.90;;
45548;SDS011;31270;48.328;10.096;2023-11-19T08:07:18;6.13;;;5.07;;
45548;SDS011;31270;48.328;10.096;2023-11-19T08:09:49;7.63;;;5.10;;
45548;SDS011;31270;48.328;10.096;2023-11-19T08:12:15;5.63;;;4.30;;
45548;SDS011;31270;48.328;10.096;2023-11-19T08:14:42;4.97;;;4.20;;
45548;SDS011;31270;48.328;10.096;2023-11-19T08:17:09;5.80;;;4.07;;
45548;SDS011;31270;48.328;10.096;2023-11-19T08:19:35;4.47;;;4.07;;
45548;SDS011;31270;48.328;10.096;2023-11-19T08:22:01;4.43;;;3.77;;
45548;SDS011;31270;48.328;10.096;2023-11-19T08:24:27;4.80;;;3.90;;
45548;SDS011;31270;48.328;10.096;2023-11-19T08:26:53;5.40;;;3.80;;
45548;SDS011;31270;48.328;10.096;2023-11-19T08:29:19;6.13;;;4.57;;
45548;SDS011;31270;48.328;10.096;2023-11-19T08:31:45;5.57;;;4.63;;
45548;SDS011;31270;48.328;10.096;2023-11-19T08:34:11;6.47;;;4.67;;
45548;SDS011;31270;48.328;10.096;2023-11-19T08:36:37;5.87;;;4.47;;
45548;SDS011;31270;48.328;10.096;2023-11-19T08:39:02;8.17;;;4.57;;
45548;SDS011;31270;48.328;10.096;2023-11-19T08:41:28;5.07;;;4.40;;
45548;SDS011;31270;48.328;10.096;2023-11-19T08:43:54;6.27;;;4.77;;
45548;SDS011;31270;48.328;10.096;2023-11-19T08:46:19;5.70;;;4.57;;
45548;SDS011;31270;48.328;10.096;2023-11-19T08:48:45;6.53;;;5.20;;
45548;SDS011;31270;48.328;10.096;2023-11-19T08:51:13;6.30;;;5.30;;
45548;SDS011;31270;48.328;10.096;2023-11-19T08:53:39;9.50;;;6.50;;
45548;SDS011;31270;48.328;10.096;2023-11-19T08:56:06;7.03;;;4.70;;
45548;SDS011;31270;48.328;10.096;2023-11-19T08:58:32;5.60;;;3.97;;
45548;SDS011;31270;48.328;10.096;2023-11-19T09:00:57;6.63;;;4.50;;
45548;SDS011;31270;48.328;10.096;2023-11-19T09:03:23;5.30;;;3.90;;
45548;SDS011;31270;48.328;10.096;2023-11-19T09:05:51;6.23;;;4.00;;
45548;SDS011;31270;48.328;10.096;2023-11-19T09:08:17;4.77;;;4.30;;
45548;SDS011;31270;48.328;10.096;2023-11-19T09:10:42;5.23;;;4.17;;
45548;SDS011;31270;48.328;10.096;2023-11-19T09:13:08;4.83;;;4.17;;
45548;SDS011;31270;48.328;10.096;2023-11-19T09:15:34;4.97;;;4.03;;
45548;SDS011;31270;48.328;10.096;2023-11-19T09:17:59;4.00;;;3.60;;
45548;SDS011;31270;48.328;10.096;2023-11-19T09:20:25;5.00;;;3.40;;
45548;SDS011;31270;48.328;10.096;2023-11-19T09:22:50;3.87;;;2.87;;
45548;SDS011;31270;48.328;10.096;2023-11-19T09:25:16;4.23;;;3.53;;
45548;SDS011;31270;48.328;10.096;2023-11-19T09:27:45;3.53;;;3.10;;
45548;SDS011;31270;48.328;10.096;2023-11-19T09:30:11;5.63;;;3.80;;
45548;SDS011;31270;48.328;10.096;2023-11-19T09:32:37;5.63;;;3.30;;
45548;SDS011;31270;48.328;10.096;2023-11-19T09:35:03;3.67;;;2.97;;
45548;SDS011;31270;48.328;10.096;2023-11-19T09:37:29;3.20;;;2.90;;
45548;SDS011;31270;48.328;10.096;2023-11-19T09:39:55;3.87;;;3.40;;
45548;SDS011;31270;48.328;10.096;2023-11-19T09:42:21;3.37;;;2.80;;
45548;SDS011;31270;48.328;10.096;2023-11-19T09:44:48;3.43;;;2.87;;
45548;SDS011;31270;48.328;10.096;2023-11-19T09:47:14;3.70;;;3.30;;
45548;SDS011;31270;48.328;10.096;2023-11-19T09:49:41;3.27;;;2.97;;
45548;SDS011;31270;48.328;10.096;2023-11-19T09:52:08;6.67;;;3.40;;
45548;SDS011;31270;48.328;10.096;2023-11-19T09:54:34;3.70;;;3.30;;
45548;SDS011;31270;48.328;10.096;2023-11-19T09:57:00;3.73;;;2.87;;
45548;SDS011;31270;48.328;10.096;2023-11-19T09:59:31;3.00;;;2.50;;
45548;SDS011;31270;48.328;10.096;2023-11-19T10:01:59;3.30;;;2.57;;
45548;SDS011;31270;48.328;10.096;2023-11-19T10:04:24;2.50;;;2.30;;
45548;SDS011;31270;48.328;10.096;2023-11-19T10:06:54;3.10;;;2.63;;
45548;SDS011;31270;48.328;10.096;2023-11-19T10:09:20;2.57;;;2.20;;
45548;SDS011;31270;48.328;10.096;2023-11-19T10:11:45;3.23;;;2.87;;
45548;SDS011;31270;48.328;10.096;2023-11-19T10:14:11;3.03;;;2.37;;
45548;SDS011;31270;48.328;10.096;2023-11-19T10:16:39;2.27;;;2.00;;
45548;SDS011;31270;48.328;10.096;2023-11-19T10:19:06;2.93;;;1.90;;
45548;SDS011;31270;48.328;10.096;2023-11-19T10:21:34;2.37;;;2.17;;
45548;SDS011;31270;48.328;10.096;2023-11-19T10:24:00;2.53;;;2.30;;
45548;SDS011;31270;48.328;10.096;2023-11-19T10:26:26;6.37;;;2.60;;
45548;SDS011;31270;48.328;10.096;2023-11-19T10:28:52;2.97;;;2.23;;
45548;SDS011;31270;48.328;10.096;2023-11-19T10:31:19;3.57;;;2.37;;
45548;SDS011;31270;48.328;10.096;2023-11-19T10:33:51;3.20;;;2.30;;
45548;SDS011;31270;48.328;10.096;2023-11-19T10:36:18;2.63;;;2.17;;
45548;SDS011;31270;48.328;10.096;2023-11-19T10:38:56;3.47;;;3.13;;
45548;SDS011;31270;48.328;10.096;2023-11-19T10:41:30;9.23;;;6.50;;
45548;SDS011;31270;48.328;10.096;2023-11-19T10:43:57;10.60;;;7.33;;
45548;SDS011;31270;48.328;10.096;2023-11-19T10:49:20;7.33;;;3.80;;
45548;SDS011;31270;48.328;10.096;2023-11-19T10:51:46;8.13;;;4.13;;
45548;SDS011;31270;48.328;10.096;2023-11-19T10:54:15;36.90;;;18.50;;
45548;SDS011;31270;48.328;10.096;2023-11-19T10:56:44;8.83;;;5.30;;
45548;SDS011;31270;48.328;10.096;2023-11-19T10:59:13;15.87;;;7.27;;
45548;SDS011;31270;48.328;10.096;2023-11-19T11:01:43;5.10;;;3.67;;
45548;SDS011;31270;48.328;10.096;2023-11-19T11:04:13;5.10;;;3.33;;
45548;SDS011;31270;48.328;10.096;2023-11-19T11:06:42;2.20;;;2.00;;
45548;SDS011;31270;48.328;10.096;2023-11-19T11:09:09;1.50;;;1.40;;
45548;SDS011;31270;48.328;10.096;2023-11-19T11:11:41;1.50;;;1.40;;
45548;SDS011;31270;48.328;10.096;2023-11-19T11:14:12;1.77;;;1.53;;
45548;SDS011;31270;48.328;10.096;2023-11-19T11:16:44;1.40;;;1.30;;
45548;SDS011;31270;48.328;10.096;2023-11-19T11:19:13;1.30;;;1.20;;
45548;SDS011;31270;48.328;10.096;2023-11-19T11:21:41;2.83;;;1.60;;
45548;SDS011;31270;48.328;10.096;2023-11-19T11:27:00;1.73;;;1.60;;
45548;SDS011;31270;48.328;10.096;2023-11-19T11:38:02;1.60;;;1.50;;
45548;SDS011;31270;48.328;10.096;2023-11-19T11:40:31;1.30;;;1.20;;
45548;SDS011;31270;48.328;10.096;2023-11-19T11:42:57;2.03;;;1.50;;
45548;SDS011;31270;48.328;10.096;2023-11-19T11:45:36;1.70;;;1.50;;
45548;SDS011;31270;48.328;10.096;2023-11-19T11:50:51;1.73;;;1.27;;
45548;SDS011;31270;48.328;10.096;2023-11-19T11:53:19;1.37;;;1.10;;
45548;SDS011;31270;48.328;10.096;2023-11-19T11:58:13;1.63;;;1.03;;
45548;SDS011;31270;48.328;10.096;2023-11-19T12:00:42;1.43;;;1.10;;
45548;SDS011;31270;48.328;10.096;2023-11-19T12:03:08;1.07;;;1.00;;
45548;SDS011;31270;48.328;10.096;2023-11-19T12:05:43;2.90;;;1.23;;
45548;SDS011;31270;48.328;10.096;2023-11-19T12:08:10;1.37;;;1.27;;
45548;SDS011;31270;48.328;10.096;2023-11-19T12:10:49;0.90;;;0.90;;
45548;SDS011;31270;48.328;10.096;2023-11-19T12:13:17;4.00;;;1.70;;
45548;SDS011;31270;48.328;10.096;2023-11-19T12:16:26;1.50;;;1.23;;
45548;SDS011;31270;48.328;10.096;2023-11-19T12:18:33;1.33;;;1.00;;
45548;SDS011;31270;48.328;10.096;2023-11-19T12:20:59;0.97;;;0.97;;
45548;SDS011;31270;48.328;10.096;2023-11-19T12:23:26;1.37;;;1.10;;
45548;SDS011;31270;48.328;10.096;2023-11-19T12:25:54;2.70;;;1.73;;
45548;SDS011;31270;48.328;10.096;2023-11-19T12:28:20;1.73;;;1.40;;
45548;SDS011;31270;48.328;10.096;2023-11-19T12:30:46;1.97;;;1.17;;
45548;SDS011;31270;48.328;10.096;2023-11-19T12:33:14;1.20;;;1.10;;
45548;SDS011;31270;48.328;10.096;2023-11-19T12:35:41;1.20;;;1.00;;
45548;SDS011;31270;48.328;10.096;2023-11-19T12:38:09;1.00;;;0.90;;
45548;SDS011;31270;48.328;10.096;2023-11-19T12:40:44;3.03;;;0.90;;
45548;SDS011;31270;48.328;10.096;2023-11-19T12:43:10;1.47;;;1.20;;
45548;SDS011;31270;48.328;10.096;2023-11-19T12:45:45;1.10;;;1.00;;
45548;SDS011;31270;48.328;10.096;2023-11-19T12:48:11;1.80;;;1.10;;
45548;SDS011;31270;48.328;10.096;2023-11-19T12:53:18;3.70;;;1.27;;
45548;SDS011;31270;48.328;10.096;2023-11-19T12:55:44;1.30;;;1.10;;
45548;SDS011;31270;48.328;10.096;2023-11-19T12:58:10;1.07;;;1.00;;
45548;SDS011;31270;48.328;10.096;2023-11-19T13:00:36;0.97;;;0.90;;
45548;SDS011;31270;48.328;10.096;2023-11-19T13:03:01;2.23;;;1.03;;
45548;SDS011;31270;48.328;10.096;2023-11-19T13:05:34;5.00;;;2.57;;
45548;SDS011;31270;48.328;10.096;2023-11-19T13:08:07;4.53;;;3.80;;
45548;SDS011;31270;48.328;10.096;2023-11-19T13:10:54;1.53;;;1.43;;
45548;SDS011;31270;48.328;10.096;2023-11-19T13:13:19;1.97;;;1.23;;
45548;SDS011;31270;48.328;10.096;2023-11-19T13:15:45;3.23;;;0.83;;
45548;SDS011;31270;48.328;10.096;2023-11-19T13:18:11;1.10;;;1.00;;
45548;SDS011;31270;48.328;10.096;2023-11-19T13:20:38;2.83;;;0.97;;
45548;SDS011;31270;48.328;10.096;2023-11-19T13:23:04;1.13;;;0.80;;
45548;SDS011;31270;48.328;10.096;2023-11-19T13:25:32;1.53;;;1.00;;
45548;SDS011;31270;48.328;10.096;2023-11-19T13:27:58;1.10;;;1.00;;
45548;SDS011;31270;48.328;10.096;2023-11-19T13:30:24;1.10;;;1.00;;
45548;SDS011;31270;48.328;10.096;2023-11-19T13:32:51;1.00;;;0.90;;
45548;SDS011;31270;48.328;10.096;2023-11-19T13:35:17;0.80;;;0.80;;
45548;SDS011;31270;48.328;10.096;2023-11-19T13:37:45;1.13;;;0.90;;
45548;SDS011;31270;48.328;10.096;2023-11-19T13:40:11;1.37;;;1.10;;
45548;SDS011;31270;48.328;10.096;2023-11-19T13:42:43;1.33;;;1.00;;
45548;SDS011;31270;48.328;10.096;2023-11-19T13:45:10;2.30;;;2.10;;
45548;SDS011;31270;48.328;10.096;2023-11-19T13:47:39;2.47;;;1.47;;
45548;SDS011;31270;48.328;10.096;2023-11-19T13:50:10;2.57;;;2.30;;
45548;SDS011;31270;48.328;10.096;2023-11-19T13:52:37;2.20;;;2.00;;
45548;SDS011;31270;48.328;10.096;2023-11-19T13:55:06;1.80;;;1.70;;
45548;SDS011;31270;48.328;10.096;2023-11-19T13:57:37;1.23;;;1.13;;
45548;SDS011;31270;48.328;10.096;2023-11-19T14:00:07;1.30;;;1.00;;
45548;SDS011;31270;48.328;10.096;2023-11-19T14:02:39;1.60;;;1.50;;
45548;SDS011;31270;48.328;10.096;2023-11-19T14:05:05;1.10;;;1.00;;
45548;SDS011;31270;48.328;10.096;2023-11-19T14:07:31;1.53;;;0.90;;
45548;SDS011;31270;48.328;10.096;2023-11-19T14:09:57;1.37;;;1.13;;
45548;SDS011;31270;48.328;10.096;2023-11-19T14:12:23;1.20;;;1.10;;
45548;SDS011;31270;48.328;10.096;2023-11-19T14:14:48;1.37;;;1.27;;
45548;SDS011;31270;48.328;10.096;2023-11-19T14:17:14;1.00;;;1.00;;
45548;SDS011;31270;48.328;10.096;2023-11-19T14:19:41;1.30;;;1.20;;
45548;SDS011;31270;48.328;10.096;2023-11-19T14:22:07;1.73;;;0.93;;
45548;SDS011;31270;48.328;10.096;2023-11-19T14:24:33;0.80;;;0.80;;
45548;SDS011;31270;48.328;10.096;2023-11-19T14:26:59;1.10;;;1.00;;
45548;SDS011;31270;48.328;10.096;2023-11-19T14:29:26;1.03;;;1.00;;
45548;SDS011;31270;48.328;10.096;2023-11-19T14:31:53;0.93;;;0.90;;
45548;SDS011;31270;48.328;10.096;2023-11-19T14:34:19;1.10;;;0.90;;
45548;SDS011;31270;48.328;10.096;2023-11-19T14:36:45;3.17;;;1.30;;
45548;SDS011;31270;48.328;10.096;2023-11-19T14:39:11;1.47;;;1.10;;
45548;SDS011;31270;48.328;10.096;2023-11-19T14:41:36;2.33;;;1.20;;
45548;SDS011;31270;48.328;10.096;2023-11-19T14:44:02;1.13;;;0.93;;
45548;SDS011;31270;48.328;10.096;2023-11-19T14:46:28;1.20;;;1.10;;
45548;SDS011;31270;48.328;10.096;2023-11-19T14:48:54;2.50;;;1.00;;
45548;SDS011;31270;48.328;10.096;2023-11-19T14:51:20;0.80;;;0.80;;
45548;SDS011;31270;48.328;10.096;2023-11-19T14:53:46;0.90;;;0.90;;